sensor_id;sensor_type;location;lat;lon;timestamp;P1;durP1;ratioP1;P2;durP2;ratioP2
26080;SDS011;13991;51.174;4.438;2022-12-18T00:01:30;126.37;;;36.77;;
26080;SDS011;13991;51.174;4.438;2022-12-18T00:03:58;110.33;;;35.33;;
26080;SDS011;13991;51.174;4.438;2022-12-18T00:06:25;138.13;;;41.10;;
26080;SDS011;13991;51.174;4.438;2022-12-18T00:08:52;132.73;;;40.73;;
26080;SDS011;13991;51.174;4.438;2022-12-18T00:11:21;132.77;;;37.23;;
26080;SDS011;13991;51.174;4.438;2022-12-18T00:13:50;126.20;;;37.83;;
26080;SDS011;13991;51.174;4.438;2022-12-18T00:16:17;126.40;;;37.87;;
26080;SDS011;13991;51.174;4.438;2022-12-18T00:18:45;117.77;;;36.27;;
26080;SDS011;13991;51.174;4.438;2022-12-18T00:21:12;125.20;;;39.23;;
26080;SDS011;13991;51.174;4.438;2022-12-18T00:23:39;115.87;;;38.03;;
26080;SDS011;13991;51.174;4.438;2022-12-18T00:26:08;127.20;;;36.50;;
26080;SDS011;13991;51.174;4.438;2022-12-18T00:28:37;126.97;;;40.13;;
26080;SDS011;13991;51.174;4.438;2022-12-18T00:33:30;133.87;;;42.07;;
26080;SDS011;13991;51.174;4.438;2022-12-18T00:36:03;123.40;;;37.03;;
26080;SDS011;13991;51.174;4.438;2022-12-18T00:38:30;127.57;;;39.17;;
26080;SDS011;13991;51.174;4.438;2022-12-18T00:40:55;138.90;;;41.73;;
26080;SDS011;13991;51.174;4.438;2022-12-18T00:43:24;115.80;;;37.77;;
26080;SDS011;13991;51.174;4.438;2022-12-18T00:45:50;121.13;;;38.93;;
26080;SDS011;13991;51.174;4.438;2022-12-18T00:48:15;132.30;;;40.90;;
26080;SDS011;13991;51.174;4.438;2022-12-18T00:50:44;126.80;;;39.63;;
26080;SDS011;13991;51.174;4.438;2022-12-18T00:53:10;134.23;;;39.97;;
26080;SDS011;13991;51.174;4.438;2022-12-18T00:55:39;108.80;;;35.00;;
26080;SDS011;13991;51.174;4.438;2022-12-18T00:58:05;119.00;;;38.37;;
26080;SDS011;13991;51.174;4.438;2022-12-18T01:00:38;117.07;;;34.80;;
26080;SDS011;13991;51.174;4.438;2022-12-18T01:03:04;120.00;;;37.77;;
26080;SDS011;13991;51.174;4.438;2022-12-18T01:05:30;118.20;;;37.33;;
26080;SDS011;13991;51.174;4.438;2022-12-18T01:07:59;115.50;;;36.50;;
26080;SDS011;13991;51.174;4.438;2022-12-18T01:10:25;113.67;;;37.20;;
26080;SDS011;13991;51.174;4.438;2022-12-18T01:12:51;108.93;;;35.67;;
26080;SDS011;13991;51.174;4.438;2022-12-18T01:15:17;126.87;;;37.20;;
26080;SDS011;13991;51.174;4.438;2022-12-18T01:17:43;129.97;;;39.37;;
26080;SDS011;13991;51.174;4.438;2022-12-18T01:20:10;119.83;;;35.67;;
26080;SDS011;13991;51.174;4.438;2022-12-18T01:22:37;123.20;;;39.10;;
26080;SDS011;13991;51.174;4.438;2022-12-18T01:25:03;132.07;;;38.13;;
26080;SDS011;13991;51.174;4.438;2022-12-18T01:27:29;130.23;;;37.33;;
26080;SDS011;13991;51.174;4.438;2022-12-18T01:29:55;130.77;;;37.30;;
26080;SDS011;13991;51.174;4.438;2022-12-18T01:32:21;118.03;;;35.83;;
26080;SDS011;13991;51.174;4.438;2022-12-18T01:34:47;124.40;;;34.90;;
26080;SDS011;13991;51.174;4.438;2022-12-18T01:37:13;115.77;;;35.47;;
26080;SDS011;13991;51.174;4.438;2022-12-18T01:39:38;116.07;;;35.43;;
26080;SDS011;13991;51.174;4.438;2022-12-18T01:42:05;108.17;;;34.27;;
26080;SDS011;13991;51.174;4.438;2022-12-18T01:50:00;117.57;;;36.60;;
26080;SDS011;13991;51.174;4.438;2022-12-18T01:52:31;118.73;;;36.00;;
26080;SDS011;13991;51.174;4.438;2022-12-18T01:54:58;113.67;;;38.27;;
26080;SDS011;13991;51.174;4.438;2022-12-18T01:57:25;116.13;;;36.77;;
26080;SDS011;13991;51.174;4.438;2022-12-18T01:59:52;112.23;;;35.10;;
26080;SDS011;13991;51.174;4.438;2022-12-18T02:02:21;132.60;;;38.57;;
26080;SDS011;13991;51.174;4.438;2022-12-18T02:04:47;126.73;;;37.17;;
26080;SDS011;13991;51.174;4.438;2022-12-18T02:12:20;123.63;;;36.83;;
26080;SDS011;13991;51.174;4.438;2022-12-18T02:14:52;109.93;;;34.77;;
26080;SDS011;13991;51.174;4.438;2022-12-18T02:17:23;119.47;;;36.47;;
26080;SDS011;13991;51.174;4.438;2022-12-18T02:25:24;112.50;;;33.10;;
26080;SDS011;13991;51.174;4.438;2022-12-18T02:28:13;104.17;;;31.40;;
26080;SDS011;13991;51.174;4.438;2022-12-18T02:30:41;103.37;;;31.07;;
26080;SDS011;13991;51.174;4.438;2022-12-18T02:33:08;107.60;;;33.77;;
26080;SDS011;13991;51.174;4.438;2022-12-18T02:35:36;102.30;;;32.43;;
26080;SDS011;13991;51.174;4.438;2022-12-18T02:38:03;100.50;;;32.80;;
26080;SDS011;13991;51.174;4.438;2022-12-18T02:40:30;100.50;;;31.30;;
26080;SDS011;13991;51.174;4.438;2022-12-18T02:43:02;94.67;;;30.80;;
26080;SDS011;13991;51.174;4.438;2022-12-18T02:45:32;98.90;;;30.47;;
26080;SDS011;13991;51.174;4.438;2022-12-18T02:47:57;105.70;;;32.17;;
26080;SDS011;13991;51.174;4.438;2022-12-18T02:53:14;110.00;;;30.30;;
26080;SDS011;13991;51.174;4.438;2022-12-18T02:55:59;106.50;;;31.40;;
26080;SDS011;13991;51.174;4.438;2022-12-18T03:01:58;94.20;;;29.00;;
26080;SDS011;13991;51.174;4.438;2022-12-18T03:07:09;87.83;;;26.67;;
26080;SDS011;13991;51.174;4.438;2022-12-18T03:09:41;97.10;;;29.87;;
26080;SDS011;13991;51.174;4.438;2022-12-18T03:17:34;93.40;;;27.27;;
26080;SDS011;13991;51.174;4.438;2022-12-18T03:20:03;90.07;;;27.40;;
26080;SDS011;13991;51.174;4.438;2022-12-18T03:22:33;84.67;;;26.87;;
26080;SDS011;13991;51.174;4.438;2022-12-18T03:25:01;89.13;;;28.73;;
26080;SDS011;13991;51.174;4.438;2022-12-18T03:27:30;92.20;;;26.90;;
26080;SDS011;13991;51.174;4.438;2022-12-18T03:30:05;78.27;;;25.27;;
26080;SDS011;13991;51.174;4.438;2022-12-18T03:35:14;86.63;;;25.97;;
26080;SDS011;13991;51.174;4.438;2022-12-18T03:37:46;78.57;;;25.07;;
26080;SDS011;13991;51.174;4.438;2022-12-18T03:40:11;71.37;;;23.23;;
26080;SDS011;13991;51.174;4.438;2022-12-18T03:45:30;76.17;;;23.27;;
26080;SDS011;13991;51.174;4.438;2022-12-18T03:48:03;70.77;;;22.70;;
26080;SDS011;13991;51.174;4.438;2022-12-18T03:50:59;66.60;;;22.20;;
26080;SDS011;13991;51.174;4.438;2022-12-18T03:56:14;71.37;;;22.77;;
26080;SDS011;13991;51.174;4.438;2022-12-18T03:58:41;73.03;;;23.27;;
26080;SDS011;13991;51.174;4.438;2022-12-18T04:01:10;75.33;;;23.60;;
26080;SDS011;13991;51.174;4.438;2022-12-18T04:03:39;77.33;;;24.50;;
26080;SDS011;13991;51.174;4.438;2022-12-18T04:06:07;70.27;;;24.27;;
26080;SDS011;13991;51.174;4.438;2022-12-18T04:08:34;79.30;;;26.07;;
26080;SDS011;13991;51.174;4.438;2022-12-18T04:11:00;75.57;;;23.23;;
26080;SDS011;13991;51.174;4.438;2022-12-18T04:13:28;78.27;;;24.63;;
26080;SDS011;13991;51.174;4.438;2022-12-18T04:15:56;91.90;;;27.03;;
26080;SDS011;13991;51.174;4.438;2022-12-18T04:18:22;69.37;;;23.30;;
26080;SDS011;13991;51.174;4.438;2022-12-18T04:20:48;77.80;;;25.20;;
26080;SDS011;13991;51.174;4.438;2022-12-18T04:23:13;77.90;;;23.50;;
26080;SDS011;13991;51.174;4.438;2022-12-18T04:25:39;68.37;;;22.87;;
26080;SDS011;13991;51.174;4.438;2022-12-18T04:28:05;76.07;;;22.10;;
26080;SDS011;13991;51.174;4.438;2022-12-18T04:30:31;70.53;;;22.27;;
26080;SDS011;13991;51.174;4.438;2022-12-18T04:32:56;65.33;;;21.57;;
26080;SDS011;13991;51.174;4.438;2022-12-18T04:35:22;79.10;;;23.93;;
26080;SDS011;13991;51.174;4.438;2022-12-18T04:37:48;70.10;;;23.30;;
26080;SDS011;13991;51.174;4.438;2022-12-18T04:40:13;71.33;;;21.93;;
26080;SDS011;13991;51.174;4.438;2022-12-18T04:42:42;69.13;;;22.73;;
26080;SDS011;13991;51.174;4.438;2022-12-18T04:45:08;76.17;;;22.00;;
26080;SDS011;13991;51.174;4.438;2022-12-18T04:47:34;82.97;;;23.13;;
26080;SDS011;13991;51.174;4.438;2022-12-18T04:49:59;68.80;;;21.87;;
26080;SDS011;13991;51.174;4.438;2022-12-18T04:52:25;66.13;;;21.53;;
26080;SDS011;13991;51.174;4.438;2022-12-18T04:54:52;64.70;;;21.63;;
26080;SDS011;13991;51.174;4.438;2022-12-18T04:57:17;62.00;;;20.50;;
26080;SDS011;13991;51.174;4.438;2022-12-18T04:59:43;67.23;;;20.83;;
26080;SDS011;13991;51.174;4.438;2022-12-18T05:02:09;70.50;;;22.23;;
26080;SDS011;13991;51.174;4.438;2022-12-18T05:04:35;65.03;;;21.47;;
26080;SDS011;13991;51.174;4.438;2022-12-18T05:07:01;57.50;;;19.57;;
26080;SDS011;13991;51.174;4.438;2022-12-18T05:09:27;64.57;;;21.57;;
26080;SDS011;13991;51.174;4.438;2022-12-18T05:11:52;53.53;;;18.27;;
26080;SDS011;13991;51.174;4.438;2022-12-18T05:14:18;53.17;;;18.43;;
26080;SDS011;13991;51.174;4.438;2022-12-18T05:16:44;66.70;;;20.53;;
26080;SDS011;13991;51.174;4.438;2022-12-18T05:19:10;51.33;;;18.30;;
26080;SDS011;13991;51.174;4.438;2022-12-18T05:21:35;58.17;;;20.10;;
26080;SDS011;13991;51.174;4.438;2022-12-18T05:24:01;65.63;;;20.67;;
26080;SDS011;13991;51.174;4.438;2022-12-18T05:26:27;60.07;;;18.67;;
26080;SDS011;13991;51.174;4.438;2022-12-18T05:28:52;61.17;;;19.30;;
26080;SDS011;13991;51.174;4.438;2022-12-18T05:31:18;50.10;;;18.20;;
26080;SDS011;13991;51.174;4.438;2022-12-18T05:33:44;57.10;;;18.63;;
26080;SDS011;13991;51.174;4.438;2022-12-18T05:36:09;53.20;;;18.43;;
26080;SDS011;13991;51.174;4.438;2022-12-18T05:38:36;59.00;;;17.97;;
26080;SDS011;13991;51.174;4.438;2022-12-18T05:41:03;57.73;;;18.13;;
26080;SDS011;13991;51.174;4.438;2022-12-18T05:43:30;54.40;;;19.07;;
26080;SDS011;13991;51.174;4.438;2022-12-18T05:45:56;62.27;;;19.90;;
26080;SDS011;13991;51.174;4.438;2022-12-18T05:48:22;61.87;;;18.77;;
26080;SDS011;13991;51.174;4.438;2022-12-18T05:50:48;55.43;;;18.80;;
26080;SDS011;13991;51.174;4.438;2022-12-18T05:53:15;52.37;;;17.30;;
26080;SDS011;13991;51.174;4.438;2022-12-18T05:55:43;56.10;;;17.50;;
26080;SDS011;13991;51.174;4.438;2022-12-18T05:58:09;52.77;;;17.57;;
26080;SDS011;13991;51.174;4.438;2022-12-18T06:00:37;56.57;;;17.57;;
26080;SDS011;13991;51.174;4.438;2022-12-18T06:03:05;53.57;;;17.90;;
26080;SDS011;13991;51.174;4.438;2022-12-18T06:05:38;51.23;;;18.10;;
26080;SDS011;13991;51.174;4.438;2022-12-18T06:08:05;58.93;;;17.60;;
26080;SDS011;13991;51.174;4.438;2022-12-18T06:10:31;51.73;;;17.07;;
26080;SDS011;13991;51.174;4.438;2022-12-18T06:12:57;42.60;;;15.63;;
26080;SDS011;13991;51.174;4.438;2022-12-18T06:15:23;44.07;;;15.93;;
26080;SDS011;13991;51.174;4.438;2022-12-18T06:17:49;49.40;;;16.63;;
26080;SDS011;13991;51.174;4.438;2022-12-18T06:20:15;49.00;;;17.23;;
26080;SDS011;13991;51.174;4.438;2022-12-18T06:22:41;49.40;;;16.03;;
26080;SDS011;13991;51.174;4.438;2022-12-18T06:25:07;47.00;;;16.60;;
26080;SDS011;13991;51.174;4.438;2022-12-18T06:27:33;50.23;;;16.37;;
26080;SDS011;13991;51.174;4.438;2022-12-18T06:29:59;56.17;;;16.80;;
26080;SDS011;13991;51.174;4.438;2022-12-18T06:32:25;54.30;;;17.43;;
26080;SDS011;13991;51.174;4.438;2022-12-18T06:34:51;51.60;;;16.33;;
26080;SDS011;13991;51.174;4.438;2022-12-18T06:37:16;49.13;;;16.27;;
26080;SDS011;13991;51.174;4.438;2022-12-18T06:39:42;56.67;;;16.87;;
26080;SDS011;13991;51.174;4.438;2022-12-18T06:42:08;47.87;;;16.50;;
26080;SDS011;13991;51.174;4.438;2022-12-18T06:44:33;45.57;;;16.47;;
26080;SDS011;13991;51.174;4.438;2022-12-18T06:46:59;49.00;;;16.40;;
26080;SDS011;13991;51.174;4.438;2022-12-18T06:49:25;56.27;;;16.30;;
26080;SDS011;13991;51.174;4.438;2022-12-18T06:51:50;46.73;;;16.93;;
26080;SDS011;13991;51.174;4.438;2022-12-18T06:54:17;47.03;;;15.83;;
26080;SDS011;13991;51.174;4.438;2022-12-18T06:56:45;51.50;;;16.20;;
26080;SDS011;13991;51.174;4.438;2022-12-18T06:59:12;46.97;;;16.87;;
26080;SDS011;13991;51.174;4.438;2022-12-18T07:01:38;52.57;;;16.27;;
26080;SDS011;13991;51.174;4.438;2022-12-18T07:04:04;47.00;;;15.33;;
26080;SDS011;13991;51.174;4.438;2022-12-18T07:06:29;46.93;;;15.43;;
26080;SDS011;13991;51.174;4.438;2022-12-18T07:08:55;50.33;;;16.13;;
26080;SDS011;13991;51.174;4.438;2022-12-18T07:11:21;49.57;;;17.20;;
26080;SDS011;13991;51.174;4.438;2022-12-18T07:13:46;47.77;;;16.53;;
26080;SDS011;13991;51.174;4.438;2022-12-18T07:16:19;48.37;;;15.30;;
26080;SDS011;13991;51.174;4.438;2022-12-18T07:18:45;43.43;;;16.20;;
26080;SDS011;13991;51.174;4.438;2022-12-18T07:21:13;51.23;;;15.60;;
26080;SDS011;13991;51.174;4.438;2022-12-18T07:23:40;47.47;;;16.27;;
26080;SDS011;13991;51.174;4.438;2022-12-18T07:26:10;49.80;;;15.90;;
26080;SDS011;13991;51.174;4.438;2022-12-18T07:28:37;44.70;;;15.47;;
26080;SDS011;13991;51.174;4.438;2022-12-18T07:31:05;50.58;;;16.60;;
26080;SDS011;13991;51.174;4.438;2022-12-18T07:33:32;44.93;;;15.30;;
26080;SDS011;13991;51.174;4.438;2022-12-18T07:36:02;48.37;;;16.67;;
26080;SDS011;13991;51.174;4.438;2022-12-18T07:38:30;46.63;;;16.03;;
26080;SDS011;13991;51.174;4.438;2022-12-18T07:41:00;50.90;;;16.50;;
26080;SDS011;13991;51.174;4.438;2022-12-18T07:43:27;51.30;;;16.03;;
26080;SDS011;13991;51.174;4.438;2022-12-18T07:45:53;51.63;;;15.97;;
26080;SDS011;13991;51.174;4.438;2022-12-18T07:48:19;46.93;;;16.57;;
26080;SDS011;13991;51.174;4.438;2022-12-18T07:50:45;54.47;;;17.47;;
26080;SDS011;13991;51.174;4.438;2022-12-18T07:53:10;51.13;;;16.30;;
26080;SDS011;13991;51.174;4.438;2022-12-18T07:55:36;44.87;;;16.50;;
26080;SDS011;13991;51.174;4.438;2022-12-18T07:58:02;45.03;;;16.13;;
26080;SDS011;13991;51.174;4.438;2022-12-18T08:00:29;48.20;;;16.37;;
26080;SDS011;13991;51.174;4.438;2022-12-18T08:02:56;43.00;;;14.30;;
26080;SDS011;13991;51.174;4.438;2022-12-18T08:05:22;47.63;;;15.03;;
26080;SDS011;13991;51.174;4.438;2022-12-18T08:07:48;46.57;;;16.57;;
26080;SDS011;13991;51.174;4.438;2022-12-18T08:10:14;44.97;;;15.83;;
26080;SDS011;13991;51.174;4.438;2022-12-18T08:12:40;46.23;;;15.93;;
26080;SDS011;13991;51.174;4.438;2022-12-18T08:15:06;47.63;;;15.13;;
26080;SDS011;13991;51.174;4.438;2022-12-18T08:17:32;38.00;;;14.40;;
26080;SDS011;13991;51.174;4.438;2022-12-18T08:19:58;41.80;;;15.17;;
26080;SDS011;13991;51.174;4.438;2022-12-18T08:22:23;51.07;;;15.50;;
26080;SDS011;13991;51.174;4.438;2022-12-18T08:24:49;44.57;;;16.03;;
26080;SDS011;13991;51.174;4.438;2022-12-18T08:27:15;48.57;;;15.77;;
26080;SDS011;13991;51.174;4.438;2022-12-18T08:29:40;48.87;;;13.80;;
26080;SDS011;13991;51.174;4.438;2022-12-18T08:32:06;45.50;;;15.03;;
26080;SDS011;13991;51.174;4.438;2022-12-18T08:34:32;43.63;;;16.07;;
26080;SDS011;13991;51.174;4.438;2022-12-18T08:36:58;40.97;;;14.63;;
26080;SDS011;13991;51.174;4.438;2022-12-18T08:39:23;38.90;;;14.63;;
26080;SDS011;13991;51.174;4.438;2022-12-18T08:41:49;45.23;;;14.80;;
26080;SDS011;13991;51.174;4.438;2022-12-18T08:44:33;42.93;;;14.47;;
26080;SDS011;13991;51.174;4.438;2022-12-18T08:47:07;48.07;;;14.83;;
26080;SDS011;13991;51.174;4.438;2022-12-18T08:49:33;48.03;;;15.80;;
26080;SDS011;13991;51.174;4.438;2022-12-18T08:52:00;35.63;;;12.53;;
26080;SDS011;13991;51.174;4.438;2022-12-18T08:54:28;44.47;;;14.10;;
26080;SDS011;13991;51.174;4.438;2022-12-18T08:56:54;50.23;;;14.77;;
26080;SDS011;13991;51.174;4.438;2022-12-18T08:59:20;49.83;;;16.13;;
26080;SDS011;13991;51.174;4.438;2022-12-18T09:01:45;43.73;;;14.93;;
26080;SDS011;13991;51.174;4.438;2022-12-18T09:04:12;54.27;;;15.43;;
26080;SDS011;13991;51.174;4.438;2022-12-18T09:06:39;37.70;;;13.87;;
26080;SDS011;13991;51.174;4.438;2022-12-18T09:09:05;38.93;;;13.47;;
26080;SDS011;13991;51.174;4.438;2022-12-18T09:11:31;40.70;;;14.53;;
26080;SDS011;13991;51.174;4.438;2022-12-18T09:13:57;41.50;;;14.17;;
26080;SDS011;13991;51.174;4.438;2022-12-18T09:16:25;47.00;;;19.65;;
26080;SDS011;13991;51.174;4.438;2022-12-18T09:18:53;46.60;;;15.53;;
26080;SDS011;13991;51.174;4.438;2022-12-18T09:21:25;43.57;;;14.83;;
26080;SDS011;13991;51.174;4.438;2022-12-18T09:23:53;42.93;;;15.80;;
26080;SDS011;13991;51.174;4.438;2022-12-18T09:26:20;39.90;;;14.33;;
26080;SDS011;13991;51.174;4.438;2022-12-18T09:28:47;41.53;;;14.20;;
26080;SDS011;13991;51.174;4.438;2022-12-18T09:31:13;51.47;;;14.90;;
26080;SDS011;13991;51.174;4.438;2022-12-18T09:33:39;41.00;;;14.20;;
26080;SDS011;13991;51.174;4.438;2022-12-18T09:36:05;46.60;;;14.23;;
26080;SDS011;13991;51.174;4.438;2022-12-18T09:38:32;43.77;;;14.93;;
26080;SDS011;13991;51.174;4.438;2022-12-18T09:41:45;47.17;;;13.50;;
26080;SDS011;13991;51.174;4.438;2022-12-18T09:46:40;37.60;;;13.77;;
26080;SDS011;13991;51.174;4.438;2022-12-18T09:49:15;32.40;;;12.80;;
26080;SDS011;13991;51.174;4.438;2022-12-18T09:52:08;41.43;;;13.40;;
26080;SDS011;13991;51.174;4.438;2022-12-18T09:54:56;37.83;;;12.50;;
26080;SDS011;13991;51.174;4.438;2022-12-18T09:57:45;35.40;;;12.97;;
26080;SDS011;13991;51.174;4.438;2022-12-18T10:00:26;37.23;;;14.43;;
26080;SDS011;13991;51.174;4.438;2022-12-18T10:02:53;41.97;;;13.23;;
26080;SDS011;13991;51.174;4.438;2022-12-18T10:05:35;40.20;;;14.77;;
26080;SDS011;13991;51.174;4.438;2022-12-18T10:08:13;34.93;;;12.27;;
26080;SDS011;13991;51.174;4.438;2022-12-18T10:16:03;33.03;;;12.67;;
26080;SDS011;13991;51.174;4.438;2022-12-18T10:18:38;31.80;;;11.83;;
26080;SDS011;13991;51.174;4.438;2022-12-18T10:21:14;32.80;;;12.83;;
26080;SDS011;13991;51.174;4.438;2022-12-18T10:23:51;37.27;;;12.30;;
26080;SDS011;13991;51.174;4.438;2022-12-18T10:26:41;37.30;;;12.77;;
26080;SDS011;13991;51.174;4.438;2022-12-18T10:29:10;33.50;;;12.67;;
26080;SDS011;13991;51.174;4.438;2022-12-18T10:31:38;32.50;;;12.23;;
26080;SDS011;13991;51.174;4.438;2022-12-18T10:34:04;37.07;;;13.67;;
26080;SDS011;13991;51.174;4.438;2022-12-18T10:36:38;38.33;;;12.73;;
26080;SDS011;13991;51.174;4.438;2022-12-18T10:39:14;36.17;;;14.27;;
26080;SDS011;13991;51.174;4.438;2022-12-18T10:42:03;36.30;;;14.63;;
26080;SDS011;13991;51.174;4.438;2022-12-18T10:44:36;39.30;;;13.67;;
26080;SDS011;13991;51.174;4.438;2022-12-18T10:47:02;37.40;;;12.73;;
26080;SDS011;13991;51.174;4.438;2022-12-18T10:49:31;33.63;;;12.77;;
26080;SDS011;13991;51.174;4.438;2022-12-18T10:54:51;34.20;;;13.23;;
26080;SDS011;13991;51.174;4.438;2022-12-18T10:59:52;29.93;;;12.13;;
26080;SDS011;13991;51.174;4.438;2022-12-18T11:02:36;39.67;;;13.63;;
26080;SDS011;13991;51.174;4.438;2022-12-18T11:05:03;35.10;;;13.20;;
26080;SDS011;13991;51.174;4.438;2022-12-18T11:07:50;30.63;;;13.37;;
26080;SDS011;13991;51.174;4.438;2022-12-18T11:10:19;30.83;;;12.17;;
26080;SDS011;13991;51.174;4.438;2022-12-18T11:12:53;31.17;;;12.40;;
26080;SDS011;13991;51.174;4.438;2022-12-18T11:15:28;30.83;;;13.00;;
26080;SDS011;13991;51.174;4.438;2022-12-18T11:17:58;32.90;;;12.47;;
26080;SDS011;13991;51.174;4.438;2022-12-18T11:20:29;36.43;;;12.83;;
26080;SDS011;13991;51.174;4.438;2022-12-18T11:22:59;37.17;;;13.47;;
26080;SDS011;13991;51.174;4.438;2022-12-18T11:25:31;31.00;;;12.40;;
26080;SDS011;13991;51.174;4.438;2022-12-18T11:28:02;34.10;;;13.40;;
26080;SDS011;13991;51.174;4.438;2022-12-18T11:30:36;35.43;;;14.87;;
26080;SDS011;13991;51.174;4.438;2022-12-18T11:35:39;30.77;;;13.30;;
26080;SDS011;13991;51.174;4.438;2022-12-18T11:38:22;48.80;;;12.87;;
26080;SDS011;13991;51.174;4.438;2022-12-18T11:43:38;38.60;;;14.03;;
26080;SDS011;13991;51.174;4.438;2022-12-18T11:46:19;36.40;;;14.00;;
26080;SDS011;13991;51.174;4.438;2022-12-18T11:48:56;34.43;;;13.70;;
26080;SDS011;13991;51.174;4.438;2022-12-18T11:51:29;38.83;;;14.13;;
26080;SDS011;13991;51.174;4.438;2022-12-18T11:54:00;33.37;;;12.70;;
26080;SDS011;13991;51.174;4.438;2022-12-18T11:56:31;31.00;;;13.07;;
26080;SDS011;13991;51.174;4.438;2022-12-18T12:01:43;40.43;;;12.40;;
26080;SDS011;13991;51.174;4.438;2022-12-18T12:07:25;31.57;;;13.57;;
26080;SDS011;13991;51.174;4.438;2022-12-18T12:12:52;30.53;;;13.50;;
26080;SDS011;13991;51.174;4.438;2022-12-18T12:18:01;40.77;;;13.80;;
26080;SDS011;13991;51.174;4.438;2022-12-18T12:20:45;42.53;;;13.77;;
26080;SDS011;13991;51.174;4.438;2022-12-18T12:23:34;32.90;;;12.93;;
26080;SDS011;13991;51.174;4.438;2022-12-18T12:37:43;29.63;;;12.67;;
26080;SDS011;13991;51.174;4.438;2022-12-18T12:40:19;29.80;;;12.93;;
26080;SDS011;13991;51.174;4.438;2022-12-18T12:51:20;30.87;;;12.67;;
26080;SDS011;13991;51.174;4.438;2022-12-18T12:53:46;33.33;;;14.23;;
26080;SDS011;13991;51.174;4.438;2022-12-18T12:56:14;38.30;;;13.67;;
26080;SDS011;13991;51.174;4.438;2022-12-18T13:06:47;36.17;;;14.73;;
26080;SDS011;13991;51.174;4.438;2022-12-18T13:09:21;34.70;;;14.07;;
26080;SDS011;13991;51.174;4.438;2022-12-18T13:11:47;41.13;;;15.53;;
26080;SDS011;13991;51.174;4.438;2022-12-18T13:14:35;35.57;;;15.07;;
26080;SDS011;13991;51.174;4.438;2022-12-18T13:19:55;37.80;;;14.30;;
26080;SDS011;13991;51.174;4.438;2022-12-18T13:25:01;37.70;;;15.00;;
26080;SDS011;13991;51.174;4.438;2022-12-18T13:39:08;31.87;;;13.50;;
26080;SDS011;13991;51.174;4.438;2022-12-18T13:40:58;42.40;;;17.03;;
26080;SDS011;13991;51.174;4.438;2022-12-18T13:43:28;43.33;;;14.47;;
26080;SDS011;13991;51.174;4.438;2022-12-18T13:48:50;34.53;;;13.87;;
26080;SDS011;13991;51.174;4.438;2022-12-18T13:51:19;37.77;;;15.37;;
26080;SDS011;13991;51.174;4.438;2022-12-18T13:53:53;37.63;;;16.03;;
26080;SDS011;13991;51.174;4.438;2022-12-18T13:56:23;37.70;;;14.60;;
26080;SDS011;13991;51.174;4.438;2022-12-18T13:59:05;37.77;;;14.90;;
26080;SDS011;13991;51.174;4.438;2022-12-18T14:02:28;39.60;;;14.97;;
26080;SDS011;13991;51.174;4.438;2022-12-18T14:04:39;38.17;;;14.13;;
26080;SDS011;13991;51.174;4.438;2022-12-18T14:07:06;35.97;;;15.00;;
26080;SDS011;13991;51.174;4.438;2022-12-18T14:09:36;40.50;;;15.23;;
26080;SDS011;13991;51.174;4.438;2022-12-18T14:12:05;34.37;;;15.23;;
26080;SDS011;13991;51.174;4.438;2022-12-18T14:14:50;40.30;;;15.77;;
26080;SDS011;13991;51.174;4.438;2022-12-18T14:17:18;36.23;;;14.77;;
26080;SDS011;13991;51.174;4.438;2022-12-18T14:19:44;38.90;;;15.43;;
26080;SDS011;13991;51.174;4.438;2022-12-18T14:22:17;41.53;;;15.37;;
26080;SDS011;13991;51.174;4.438;2022-12-18T14:25:15;37.13;;;16.03;;
26080;SDS011;13991;51.174;4.438;2022-12-18T14:28:23;41.53;;;17.23;;
26080;SDS011;13991;51.174;4.438;2022-12-18T14:30:35;40.03;;;16.07;;
26080;SDS011;13991;51.174;4.438;2022-12-18T14:35:28;43.53;;;16.33;;
26080;SDS011;13991;51.174;4.438;2022-12-18T14:37:55;43.63;;;18.23;;
26080;SDS011;13991;51.174;4.438;2022-12-18T14:40:42;43.40;;;16.23;;
26080;SDS011;13991;51.174;4.438;2022-12-18T14:43:11;50.07;;;18.87;;
26080;SDS011;13991;51.174;4.438;2022-12-18T14:45:41;48.53;;;19.13;;
26080;SDS011;13991;51.174;4.438;2022-12-18T14:48:11;44.07;;;18.57;;
26080;SDS011;13991;51.174;4.438;2022-12-18T14:50:38;50.17;;;18.77;;
26080;SDS011;13991;51.174;4.438;2022-12-18T14:53:03;47.87;;;17.03;;
26080;SDS011;13991;51.174;4.438;2022-12-18T14:55:48;42.17;;;16.80;;
26080;SDS011;13991;51.174;4.438;2022-12-18T14:58:15;47.47;;;18.10;;
26080;SDS011;13991;51.174;4.438;2022-12-18T15:00:43;44.33;;;18.10;;
26080;SDS011;13991;51.174;4.438;2022-12-18T15:03:08;40.87;;;17.57;;
26080;SDS011;13991;51.174;4.438;2022-12-18T15:05:35;50.00;;;20.03;;
26080;SDS011;13991;51.174;4.438;2022-12-18T15:08:01;48.13;;;17.60;;
26080;SDS011;13991;51.174;4.438;2022-12-18T15:18:10;52.80;;;19.07;;
26080;SDS011;13991;51.174;4.438;2022-12-18T15:26:05;47.93;;;18.57;;
26080;SDS011;13991;51.174;4.438;2022-12-18T15:36:17;51.63;;;19.67;;
26080;SDS011;13991;51.174;4.438;2022-12-18T15:38:48;52.93;;;19.03;;
26080;SDS011;13991;51.174;4.438;2022-12-18T15:41:16;48.73;;;18.40;;
26080;SDS011;13991;51.174;4.438;2022-12-18T15:43:44;42.97;;;17.77;;
26080;SDS011;13991;51.174;4.438;2022-12-18T15:46:15;46.70;;;18.33;;
26080;SDS011;13991;51.174;4.438;2022-12-18T15:48:51;49.53;;;18.80;;
26080;SDS011;13991;51.174;4.438;2022-12-18T15:51:32;45.50;;;19.40;;
26080;SDS011;13991;51.174;4.438;2022-12-18T15:54:00;47.10;;;19.70;;
26080;SDS011;13991;51.174;4.438;2022-12-18T15:56:29;48.90;;;19.63;;
26080;SDS011;13991;51.174;4.438;2022-12-18T15:59:17;49.70;;;18.40;;
26080;SDS011;13991;51.174;4.438;2022-12-18T16:01:48;49.40;;;18.80;;
26080;SDS011;13991;51.174;4.438;2022-12-18T16:04:16;56.50;;;19.30;;
26080;SDS011;13991;51.174;4.438;2022-12-18T16:06:45;47.10;;;19.37;;
26080;SDS011;13991;51.174;4.438;2022-12-18T16:09:10;46.70;;;20.30;;
26080;SDS011;13991;51.174;4.438;2022-12-18T16:11:36;51.00;;;19.90;;
26080;SDS011;13991;51.174;4.438;2022-12-18T16:16:49;52.63;;;19.07;;
26080;SDS011;13991;51.174;4.438;2022-12-18T16:19:17;56.73;;;19.83;;
26080;SDS011;13991;51.174;4.438;2022-12-18T16:21:43;59.20;;;20.50;;
26080;SDS011;13991;51.174;4.438;2022-12-18T16:24:16;56.07;;;19.00;;
26080;SDS011;13991;51.174;4.438;2022-12-18T16:26:44;51.17;;;19.77;;
26080;SDS011;13991;51.174;4.438;2022-12-18T16:29:13;51.53;;;19.43;;
26080;SDS011;13991;51.174;4.438;2022-12-18T16:31:39;55.40;;;21.53;;
26080;SDS011;13991;51.174;4.438;2022-12-18T16:34:21;47.77;;;19.27;;
26080;SDS011;13991;51.174;4.438;2022-12-18T16:36:51;59.83;;;21.17;;
26080;SDS011;13991;51.174;4.438;2022-12-18T16:39:21;54.97;;;20.20;;
26080;SDS011;13991;51.174;4.438;2022-12-18T16:41:47;53.50;;;19.50;;
26080;SDS011;13991;51.174;4.438;2022-12-18T16:44:12;58.47;;;22.60;;
26080;SDS011;13991;51.174;4.438;2022-12-18T16:46:42;55.03;;;20.50;;
26080;SDS011;13991;51.174;4.438;2022-12-18T16:49:10;57.37;;;20.97;;
26080;SDS011;13991;51.174;4.438;2022-12-18T16:51:37;59.30;;;21.37;;
26080;SDS011;13991;51.174;4.438;2022-12-18T16:54:03;49.10;;;19.90;;
26080;SDS011;13991;51.174;4.438;2022-12-18T16:56:29;59.60;;;21.33;;